createdAt,value
2023-02-11T00:00:42.872Z,81.30
2023-02-11T00:03:09.827Z,86.68
2023-02-11T00:05:36.539Z,94.20
2023-02-11T00:08:03.425Z,123.20
2023-02-11T00:10:29.968Z,97.85
2023-02-11T00:12:56.578Z,92.28
2023-02-11T00:15:23.249Z,181.68
2023-02-11T00:17:49.981Z,225.35
2023-02-11T00:20:16.584Z,142.60
2023-02-11T00:22:43.700Z,103.00
2023-02-11T00:25:10.298Z,124.00
2023-02-11T00:27:37.704Z,275.35
2023-02-11T00:30:05.438Z,305.67
2023-02-11T00:32:32.452Z,148.00
2023-02-11T00:34:59.045Z,153.98
2023-02-11T00:37:25.704Z,140.85
2023-02-11T00:39:52.367Z,95.45
2023-02-11T00:42:19.044Z,224.32
2023-02-11T00:44:45.691Z,118.45
2023-02-11T00:47:12.376Z,106.90
2023-02-11T00:49:40.289Z,92.57
2023-02-11T00:52:07.128Z,104.57
2023-02-11T00:54:34.506Z,120.45
2023-02-11T00:57:01.211Z,140.85
2023-02-11T00:59:28.094Z,94.72
2023-02-11T01:01:55.274Z,101.40
2023-02-11T01:04:21.854Z,243.15
2023-02-11T01:06:51.746Z,147.82
2023-02-11T01:09:18.390Z,113.22
2023-02-11T01:11:44.980Z,124.07
2023-02-11T01:14:11.577Z,136.35
2023-02-11T01:16:38.252Z,91.13
2023-02-11T01:19:04.870Z,128.85
2023-02-11T01:21:31.475Z,120.85
2023-02-11T01:23:58.123Z,93.28
2023-02-11T01:26:24.742Z,96.18
2023-02-11T01:28:51.458Z,91.20
2023-02-11T01:31:18.291Z,114.13
2023-02-11T01:33:45.340Z,189.82
2023-02-11T01:36:12.904Z,197.02
2023-02-11T01:38:40.910Z,85.28
2023-02-11T01:41:10.707Z,82.30
2023-02-11T01:43:41.980Z,138.52
2023-02-11T01:46:32.878Z,107.73
2023-02-11T01:49:09.858Z,114.63
2023-02-11T01:52:12.763Z,91.32
2023-02-11T01:57:32.244Z,85.72
2023-02-11T02:00:24.151Z,123.95
2023-02-11T02:03:14.339Z,74.78
2023-02-11T02:05:58.483Z,61.07
2023-02-11T02:08:41.221Z,100.28
2023-02-11T02:11:08.308Z,78.20
2023-02-11T02:13:36.999Z,82.78
2023-02-11T02:16:09.636Z,76.32
2023-02-11T02:19:03.245Z,84.03
2023-02-11T02:21:54.502Z,82.85
2023-02-11T02:25:01.000Z,81.47
2023-02-11T02:27:27.651Z,77.43
2023-02-11T02:30:11.197Z,78.60
2023-02-11T02:33:20.332Z,75.32
2023-02-11T02:36:14.751Z,76.55
2023-02-11T02:38:45.823Z,74.75
2023-02-11T02:41:28.541Z,83.15
2023-02-11T02:43:55.635Z,79.10
2023-02-11T02:46:26.600Z,79.93
2023-02-11T02:48:54.782Z,109.55
2023-02-11T02:51:30.124Z,72.43
2023-02-11T02:54:14.954Z,84.28
2023-02-11T02:56:51.470Z,115.25
2023-02-11T03:02:00.068Z,117.00
2023-02-11T03:04:37.405Z,83.68
2023-02-11T03:07:12.537Z,84.65
2023-02-11T03:09:46.440Z,81.57
2023-02-11T03:12:15.041Z,123.40
2023-02-11T03:14:42.100Z,223.90
2023-02-11T03:17:10.327Z,98.93
2023-02-11T03:19:43.279Z,118.38
2023-02-11T03:23:02.222Z,98.97
2023-02-11T03:25:35.187Z,112.68
2023-02-11T03:28:18.042Z,186.07
2023-02-11T03:30:53.398Z,102.55
2023-02-11T03:33:27.374Z,94.03
2023-02-11T03:35:58.491Z,80.82
2023-02-11T03:38:33.055Z,99.18
2023-02-11T03:41:04.737Z,92.30
2023-02-11T03:43:35.866Z,104.13
2023-02-11T03:46:03.996Z,96.43
2023-02-11T03:48:38.178Z,84.22
2023-02-11T03:51:07.754Z,82.30
2023-02-11T03:53:34.867Z,88.97
2023-02-11T03:58:19.707Z,92.10
2023-02-11T04:00:46.470Z,98.40
2023-02-11T04:03:13.445Z,95.68
2023-02-11T04:05:40.502Z,89.38
2023-02-11T04:08:07.370Z,84.38
2023-02-11T04:10:34.010Z,97.32
2023-02-11T04:13:00.630Z,87.80
2023-02-11T04:15:27.284Z,77.10
2023-02-11T04:17:53.864Z,79.93
2023-02-11T04:20:20.660Z,85.22
2023-02-11T04:22:47.156Z,77.90
2023-02-11T04:25:13.757Z,74.35
2023-02-11T04:27:40.385Z,78.93
2023-02-11T04:30:10.053Z,79.47
2023-02-11T04:32:36.566Z,84.90
2023-02-11T04:35:03.596Z,80.53
2023-02-11T04:37:30.275Z,78.00
2023-02-11T04:39:56.923Z,73.22
2023-02-11T04:42:24.009Z,80.10
2023-02-11T04:44:50.624Z,74.65
2023-02-11T04:47:18.060Z,80.85
2023-02-11T04:49:44.697Z,88.10
2023-02-11T04:52:11.252Z,72.88
2023-02-11T04:54:38.008Z,65.55
2023-02-11T04:57:04.560Z,70.03
2023-02-11T04:59:31.158Z,74.97
2023-02-11T05:01:57.788Z,80.55
2023-02-11T05:04:24.765Z,73.93
2023-02-11T05:06:51.331Z,63.75
2023-02-11T05:09:18.189Z,71.45
2023-02-11T05:11:44.838Z,67.05
2023-02-11T05:14:11.407Z,68.05
2023-02-11T05:16:37.944Z,61.58
2023-02-11T05:19:04.930Z,59.03
2023-02-11T05:21:31.475Z,58.45
2023-02-11T05:23:58.151Z,59.75
2023-02-11T05:26:25.343Z,56.38
2023-02-11T05:28:51.913Z,56.97
2023-02-11T05:31:18.561Z,60.35
2023-02-11T05:33:45.490Z,57.45
2023-02-11T05:36:13.889Z,57.17
2023-02-11T05:38:42.535Z,53.05
2023-02-11T05:41:10.770Z,52.20
2023-02-11T05:43:37.574Z,49.22
2023-02-11T05:46:05.475Z,57.15
2023-02-11T05:48:32.360Z,70.65
2023-02-11T05:50:59.065Z,62.67
2023-02-11T05:53:25.735Z,71.60
2023-02-11T05:55:52.692Z,56.45
2023-02-11T05:58:19.471Z,67.03
2023-02-11T06:00:46.073Z,66.45
2023-02-11T06:07:43.141Z,49.95
2023-02-11T06:10:10.616Z,53.25
2023-02-11T06:12:38.450Z,51.92
2023-02-11T06:15:06.279Z,51.90
2023-02-11T06:17:33.778Z,60.13
2023-02-11T06:20:02.818Z,44.83
2023-02-11T06:22:29.499Z,49.72
2023-02-11T06:25:01.713Z,47.53
2023-02-11T06:27:29.522Z,41.42
2023-02-11T06:29:56.247Z,45.22
2023-02-11T06:32:43.510Z,37.65
2023-02-11T06:35:11.921Z,42.88
2023-02-11T06:37:39.308Z,50.03
2023-02-11T06:40:06.315Z,41.58
2023-02-11T06:42:33.022Z,44.95
2023-02-11T06:47:18.786Z,51.00
2023-02-11T06:49:45.856Z,53.55
2023-02-11T06:52:12.376Z,33.47
2023-02-11T06:54:39.016Z,38.22
2023-02-11T06:57:05.582Z,33.03
2023-02-11T06:59:32.247Z,34.80
2023-02-11T07:01:58.823Z,45.15
2023-02-11T07:04:25.614Z,41.15
2023-02-11T07:06:52.128Z,42.20
2023-02-11T07:09:18.763Z,44.20
2023-02-11T07:11:45.331Z,32.20
2023-02-11T07:14:13.319Z,42.95
2023-02-11T07:16:40.004Z,39.00
2023-02-11T07:19:06.740Z,39.83
2023-02-11T07:21:33.289Z,46.80
2023-02-11T07:23:59.975Z,44.70
2023-02-11T07:26:26.988Z,45.97
2023-02-11T07:28:53.797Z,102.07
2023-02-11T07:31:26.364Z,42.22
2023-02-11T07:33:55.349Z,48.85
2023-02-11T07:38:44.772Z,41.03
2023-02-11T07:41:14.821Z,43.10
2023-02-11T07:43:42.315Z,46.20
2023-02-11T07:46:15.850Z,35.63
2023-02-11T07:51:04.567Z,39.88
2023-02-11T07:53:31.230Z,40.83
2023-02-11T07:55:57.761Z,38.25
2023-02-11T07:58:24.481Z,39.97
2023-02-11T08:00:51.082Z,36.08
2023-02-11T08:03:17.823Z,37.70
2023-02-11T08:08:08.627Z,40.53
2023-02-11T08:10:35.271Z,47.95
2023-02-11T08:13:01.803Z,37.50
2023-02-11T08:15:28.666Z,44.70
2023-02-11T08:17:55.750Z,44.60
2023-02-11T08:20:22.422Z,40.67
2023-02-11T08:22:49.034Z,57.05
2023-02-11T08:25:16.332Z,41.42
2023-02-11T08:27:42.887Z,42.47
2023-02-11T08:30:10.409Z,40.63
2023-02-11T08:32:37.069Z,51.53
2023-02-11T08:35:03.874Z,38.38
2023-02-11T08:37:32.988Z,61.90
2023-02-11T08:40:00.176Z,40.67
2023-02-11T08:42:26.751Z,46.60
2023-02-11T08:44:53.363Z,103.30
2023-02-11T08:47:20.261Z,41.25
2023-02-11T08:49:46.900Z,82.10
2023-02-11T08:52:13.524Z,45.95
2023-02-11T08:54:40.154Z,41.83
2023-02-11T08:57:06.718Z,95.13
2023-02-11T08:59:33.545Z,42.90
2023-02-11T09:02:00.201Z,60.42
2023-02-11T09:04:26.801Z,53.60
2023-02-11T09:06:55.776Z,46.00
2023-02-11T09:09:22.432Z,101.18
2023-02-11T09:11:49.064Z,39.90
2023-02-11T09:14:22.556Z,45.28
2023-02-11T09:16:49.481Z,39.63
2023-02-11T09:19:17.022Z,77.22
2023-02-11T09:21:44.262Z,43.70
2023-02-11T09:24:11.436Z,49.28
2023-02-11T09:26:40.810Z,61.58
2023-02-11T09:29:07.501Z,40.08
2023-02-11T09:31:37.066Z,37.50
2023-02-11T09:34:06.108Z,41.22
2023-02-11T09:36:37.489Z,40.28
2023-02-11T09:39:06.340Z,33.70
2023-02-11T09:42:00.820Z,40.58
2023-02-11T09:44:31.248Z,38.97
2023-02-11T09:47:21.064Z,41.20
2023-02-11T09:49:51.873Z,48.92
2023-02-11T09:52:51.645Z,38.55
2023-02-11T09:55:23.057Z,48.05
2023-02-11T09:57:49.828Z,37.53
2023-02-11T10:00:48.351Z,47.05
2023-02-11T10:03:39.804Z,42.17
2023-02-11T10:06:24.562Z,40.90
2023-02-11T10:09:25.070Z,53.95
2023-02-11T10:11:57.795Z,62.45
2023-02-11T10:14:24.326Z,47.97
2023-02-11T10:17:06.344Z,48.75
2023-02-11T10:19:32.959Z,46.20
2023-02-11T10:22:19.395Z,38.83
2023-02-11T10:25:18.122Z,51.47
2023-02-11T10:27:45.083Z,44.45
2023-02-11T10:30:21.057Z,51.92
2023-02-11T10:33:04.670Z,43.30
2023-02-11T10:35:32.235Z,45.45
2023-02-11T10:37:59.650Z,60.95
2023-02-11T10:40:29.659Z,50.45
2023-02-11T10:43:00.457Z,66.32
2023-02-11T10:45:36.963Z,56.03
2023-02-11T10:48:06.551Z,48.42
2023-02-11T10:50:36.987Z,48.25
2023-02-11T10:53:23.790Z,46.97
2023-02-11T10:55:56.264Z,45.88
2023-02-11T10:58:30.735Z,51.50
2023-02-11T11:00:59.924Z,54.30
2023-02-11T11:03:32.422Z,45.67
2023-02-11T11:06:02.041Z,76.40
2023-02-11T11:08:45.260Z,58.33
2023-02-11T11:11:17.898Z,54.85
2023-02-11T11:13:53.525Z,51.00
2023-02-11T11:16:29.510Z,52.22
2023-02-11T11:19:08.136Z,57.58
2023-02-11T11:21:46.509Z,47.38
2023-02-11T11:24:20.926Z,52.03
2023-02-11T11:26:54.893Z,43.15
2023-02-11T11:29:28.665Z,47.70
2023-02-11T11:31:59.382Z,46.28
2023-02-11T11:34:34.402Z,49.20
2023-02-11T11:37:13.996Z,47.42
2023-02-11T11:39:40.909Z,49.05
2023-02-11T11:42:29.474Z,48.22
2023-02-11T11:45:16.123Z,49.40
2023-02-11T11:47:47.266Z,60.60
2023-02-11T11:50:21.170Z,50.90
2023-02-11T11:53:00.268Z,42.15
2023-02-11T11:55:48.437Z,58.13
2023-02-11T11:58:23.175Z,47.42
2023-02-11T12:00:59.321Z,50.13
2023-02-11T12:03:28.908Z,46.13
2023-02-11T12:06:21.544Z,46.03
2023-02-11T12:11:36.288Z,49.95
2023-02-11T12:14:32.275Z,65.40
2023-02-11T12:17:11.098Z,51.47
2023-02-11T12:20:19.851Z,48.78
2023-02-11T12:23:12.469Z,71.22
2023-02-11T12:28:26.949Z,60.35
2023-02-11T12:31:19.315Z,65.60
2023-02-11T12:34:04.877Z,68.90
2023-02-11T12:36:54.356Z,62.22
2023-02-11T12:39:27.122Z,53.80
2023-02-11T12:42:33.353Z,83.45
2023-02-11T12:45:11.914Z,51.33
2023-02-11T12:48:16.148Z,57.00
2023-02-11T12:50:59.193Z,63.95
2023-02-11T12:53:37.600Z,78.45
2023-02-11T12:56:17.422Z,56.45
2023-02-11T12:58:46.729Z,56.13
2023-02-11T13:01:23.754Z,60.53
2023-02-11T13:03:57.427Z,55.47
2023-02-11T13:06:38.709Z,66.60
2023-02-11T13:09:22.824Z,62.67
2023-02-11T13:11:54.157Z,48.05
2023-02-11T13:14:29.705Z,54.37
2023-02-11T13:16:58.394Z,46.25
2023-02-11T13:19:31.256Z,51.47
2023-02-11T13:22:10.993Z,59.13
2023-02-11T13:25:03.860Z,72.53
2023-02-11T13:27:42.575Z,56.03
2023-02-11T13:30:30.348Z,59.90
2023-02-11T13:32:57.069Z,51.10
2023-02-11T13:37:47.924Z,52.80
2023-02-11T13:40:24.109Z,69.13
2023-02-11T13:42:57.578Z,158.18
2023-02-11T13:45:33.418Z,70.70
2023-02-11T13:48:04.447Z,63.75
2023-02-11T13:50:37.218Z,65.38
2023-02-11T13:53:08.017Z,61.30
2023-02-11T13:55:35.785Z,64.70
2023-02-11T13:58:08.464Z,51.40
2023-02-11T14:00:35.034Z,51.40
2023-02-11T14:03:29.556Z,53.08
2023-02-11T14:06:27.202Z,81.72
2023-02-11T14:09:09.073Z,89.43
2023-02-11T14:11:41.867Z,66.78
2023-02-11T14:14:24.221Z,55.83
2023-02-11T14:19:47.164Z,50.28
2023-02-11T14:22:13.768Z,50.17
2023-02-11T14:24:47.715Z,66.30
2023-02-11T14:27:51.385Z,59.53
2023-02-11T14:30:18.024Z,58.58
2023-02-11T14:33:13.257Z,61.88
2023-02-11T14:36:05.813Z,50.05
2023-02-11T14:39:12.047Z,61.70
2023-02-11T14:41:42.987Z,56.50
2023-02-11T14:44:19.419Z,87.78
2023-02-11T14:46:52.517Z,109.25
2023-02-11T14:49:27.084Z,59.63
2023-02-11T14:51:59.120Z,146.50
2023-02-11T14:54:28.697Z,54.17
2023-02-11T14:57:16.316Z,97.30
2023-02-11T15:00:03.550Z,60.65
2023-02-11T15:02:35.310Z,58.95
2023-02-11T15:05:23.587Z,42.58
2023-02-11T15:07:53.786Z,137.32
2023-02-11T15:10:35.091Z,98.85
2023-02-11T15:13:03.059Z,64.03
2023-02-11T15:15:31.876Z,86.13
2023-02-11T15:18:01.622Z,62.80
2023-02-11T15:20:31.942Z,62.42
2023-02-11T15:23:09.256Z,82.25
2023-02-11T15:25:44.332Z,84.40
2023-02-11T15:28:22.703Z,129.68
2023-02-11T15:30:57.310Z,79.13
2023-02-11T15:33:25.440Z,162.23
2023-02-11T15:35:52.244Z,78.50
2023-02-11T15:38:19.479Z,77.95
2023-02-11T15:41:33.950Z,99.60
2023-02-11T15:44:00.694Z,74.85
2023-02-11T15:46:37.491Z,114.00
2023-02-11T15:49:04.757Z,74.22
2023-02-11T15:51:37.506Z,78.10
2023-02-11T15:54:09.623Z,87.85
2023-02-11T15:59:16.899Z,204.77
2023-02-11T16:01:45.393Z,101.93
2023-02-11T16:04:27.085Z,85.55
2023-02-11T16:06:55.528Z,88.63
2023-02-11T16:09:25.476Z,90.85
2023-02-11T16:11:52.076Z,91.75
2023-02-11T16:14:27.800Z,89.75
2023-02-11T16:16:58.945Z,110.05
2023-02-11T16:19:26.724Z,102.55
2023-02-11T16:21:54.974Z,90.85
2023-02-11T16:24:28.131Z,90.00
2023-02-11T16:27:00.497Z,87.85
2023-02-11T16:32:09.741Z,110.95
2023-02-11T16:34:36.992Z,97.93
2023-02-11T16:37:05.531Z,85.00
2023-02-11T16:39:32.518Z,100.15
2023-02-11T16:41:59.555Z,123.53
2023-02-11T16:44:26.237Z,89.90
2023-02-11T16:46:54.115Z,106.70
2023-02-11T16:49:24.463Z,94.15
2023-02-11T16:51:56.095Z,114.57
2023-02-11T16:54:23.255Z,76.97
2023-02-11T16:56:50.147Z,100.03
2023-02-11T16:59:16.810Z,99.57
2023-02-11T17:01:44.862Z,93.97
2023-02-11T17:04:24.476Z,106.53
2023-02-11T17:06:51.267Z,117.00
2023-02-11T17:09:29.732Z,102.05
2023-02-11T17:11:57.131Z,98.20
2023-02-11T17:14:23.671Z,103.68
2023-02-11T17:16:50.602Z,116.88
2023-02-11T17:19:21.931Z,104.75
2023-02-11T17:21:50.767Z,109.23
2023-02-11T17:24:18.199Z,114.18
2023-02-11T17:26:45.750Z,101.72
2023-02-11T17:29:19.458Z,107.68
2023-02-11T17:31:46.397Z,116.63
2023-02-11T17:34:13.022Z,112.05
2023-02-11T17:36:41.399Z,108.45
2023-02-11T17:39:08.700Z,107.50
2023-02-11T17:41:38.804Z,118.88
2023-02-11T17:44:06.540Z,110.18
2023-02-11T17:46:36.278Z,109.85
2023-02-11T17:49:03.622Z,105.43
2023-02-11T17:51:36.956Z,105.47
2023-02-11T17:54:06.433Z,102.10
2023-02-11T17:56:34.453Z,95.85
2023-02-11T17:59:02.866Z,98.20
2023-02-11T18:01:31.414Z,96.80
2023-02-11T18:06:19.380Z,91.40
2023-02-11T18:08:46.254Z,96.10
2023-02-11T18:11:15.918Z,107.15
2023-02-11T18:13:43.734Z,104.72
2023-02-11T18:16:17.515Z,101.68
2023-02-11T18:18:44.441Z,100.22
2023-02-11T18:21:17.068Z,112.70
2023-02-11T18:23:44.220Z,92.57
2023-02-11T18:26:12.633Z,104.90
2023-02-11T18:28:39.820Z,91.25
2023-02-11T18:31:08.387Z,100.43
2023-02-11T18:33:36.492Z,101.40
2023-02-11T18:36:08.633Z,111.40
2023-02-11T18:38:35.304Z,97.65
2023-02-11T18:41:02.667Z,88.93
2023-02-11T18:43:31.702Z,104.25
2023-02-11T18:45:58.539Z,101.43
2023-02-11T18:48:28.524Z,99.47
2023-02-11T18:50:56.389Z,106.00
2023-02-11T18:53:24.732Z,96.03
2023-02-11T18:55:53.602Z,94.70
2023-02-11T18:58:21.400Z,110.65
2023-02-11T19:00:48.627Z,96.82
2023-02-11T19:03:15.459Z,107.95
2023-02-11T19:05:42.969Z,100.30
2023-02-11T19:08:09.706Z,96.57
2023-02-11T19:10:43.381Z,137.00
2023-02-11T19:13:10.429Z,120.03
2023-02-11T19:15:46.902Z,101.07
2023-02-11T19:18:15.535Z,94.10
2023-02-11T19:20:43.484Z,103.22
2023-02-11T19:23:10.957Z,87.07
2023-02-11T19:25:37.932Z,104.03
2023-02-11T19:28:04.905Z,104.00
2023-02-11T19:30:33.297Z,101.60
2023-02-11T19:33:00.268Z,99.78
2023-02-11T19:35:27.293Z,99.45
2023-02-11T19:37:56.684Z,107.82
2023-02-11T19:40:23.234Z,106.78
2023-02-11T19:42:52.550Z,103.20
2023-02-11T19:45:19.384Z,107.32
2023-02-11T19:47:46.329Z,99.15
2023-02-11T19:50:13.536Z,108.13
2023-02-11T19:52:40.834Z,114.60
2023-02-11T19:55:08.333Z,110.90
2023-02-11T19:57:36.671Z,128.23
2023-02-11T20:00:04.661Z,114.38
2023-02-11T20:02:39.665Z,107.55
2023-02-11T20:05:07.354Z,121.55
2023-02-11T20:07:35.137Z,115.20
2023-02-11T20:10:03.306Z,112.60
2023-02-11T20:12:29.952Z,185.10
2023-02-11T20:15:00.879Z,125.35
2023-02-11T20:17:27.664Z,118.97
2023-02-11T20:19:54.332Z,120.53
2023-02-11T20:22:21.106Z,130.98
2023-02-11T20:24:47.760Z,132.00
2023-02-11T20:27:14.403Z,144.30
2023-02-11T20:29:41.135Z,126.28
2023-02-11T20:32:08.541Z,183.70
2023-02-11T20:34:37.974Z,129.10
2023-02-11T20:37:05.138Z,128.02
2023-02-11T20:39:32.025Z,118.90
2023-02-11T20:41:58.952Z,130.75
2023-02-11T20:44:25.584Z,139.95
2023-02-11T20:46:54.130Z,140.55
2023-02-11T20:49:23.924Z,134.95
2023-02-11T20:51:53.672Z,142.75
2023-02-11T20:54:24.800Z,116.90
2023-02-11T20:56:53.546Z,130.00
2023-02-11T20:59:21.086Z,130.27
2023-02-11T21:01:50.277Z,153.02
2023-02-11T21:04:25.518Z,130.18
2023-02-11T21:06:55.464Z,134.05
2023-02-11T21:09:25.178Z,133.15
2023-02-11T21:11:52.834Z,145.13
2023-02-11T21:14:22.471Z,147.20
2023-02-11T21:16:50.356Z,135.07
2023-02-11T21:19:17.568Z,137.10
2023-02-11T21:21:44.664Z,128.98
2023-02-11T21:24:11.651Z,119.93
2023-02-11T21:26:39.054Z,132.27
2023-02-11T21:29:07.674Z,138.73
2023-02-11T21:34:06.060Z,130.43
2023-02-11T21:36:33.449Z,149.70
2023-02-11T21:39:01.672Z,129.98
2023-02-11T21:41:28.636Z,137.75
2023-02-11T21:43:58.365Z,151.30
2023-02-11T21:46:26.787Z,131.40
2023-02-11T21:48:55.840Z,150.50
2023-02-11T21:51:25.324Z,135.30
2023-02-11T21:54:12.614Z,159.48
2023-02-11T21:56:40.764Z,141.25
2023-02-11T21:59:07.666Z,143.00
2023-02-11T22:01:36.723Z,136.23
2023-02-11T22:04:03.966Z,166.77
2023-02-11T22:06:33.274Z,157.88
2023-02-11T22:09:04.762Z,152.63
2023-02-11T22:11:31.455Z,154.57
2023-02-11T22:13:59.017Z,149.35
2023-02-11T22:16:27.118Z,175.75
2023-02-11T22:18:54.004Z,152.00
2023-02-11T22:21:22.901Z,167.13
2023-02-11T22:23:50.980Z,175.63
2023-02-11T22:26:20.950Z,165.32
2023-02-11T22:28:48.613Z,161.27
2023-02-11T22:31:21.289Z,164.50
2023-02-11T22:33:49.187Z,181.90
2023-02-11T22:36:23.313Z,175.25
2023-02-11T22:38:50.487Z,172.73
2023-02-11T22:41:17.758Z,193.20
2023-02-11T22:43:44.875Z,176.80
2023-02-11T22:46:15.312Z,160.38
2023-02-11T22:48:42.248Z,167.35
2023-02-11T22:51:17.760Z,164.27
2023-02-11T22:53:44.466Z,181.40
2023-02-11T22:56:15.603Z,194.50
2023-02-11T22:58:43.439Z,176.53
2023-02-11T23:01:10.478Z,192.27
2023-02-11T23:03:37.182Z,177.80
2023-02-11T23:06:04.105Z,179.20
2023-02-11T23:08:32.010Z,192.23
2023-02-11T23:11:06.949Z,189.52
2023-02-11T23:13:35.953Z,177.98
2023-02-11T23:16:08.306Z,170.85
2023-02-11T23:18:36.861Z,174.02
2023-02-11T23:21:13.634Z,189.13
2023-02-11T23:23:40.375Z,197.32
2023-02-11T23:26:10.548Z,182.65
2023-02-11T23:28:37.713Z,194.68
2023-02-11T23:31:14.903Z,188.60
2023-02-11T23:33:41.890Z,190.18
2023-02-11T23:36:08.938Z,187.93
2023-02-11T23:38:38.934Z,190.25
2023-02-11T23:41:05.738Z,175.48
2023-02-11T23:43:32.479Z,182.60
2023-02-11T23:45:59.302Z,160.65
2023-02-11T23:48:26.472Z,169.35
2023-02-11T23:50:53.224Z,135.45
2023-02-11T23:53:22.904Z,157.15
2023-02-11T23:55:49.480Z,139.40
2023-02-11T23:58:16.202Z,119.80
